Time;durP1;ratioP1;P1;durP2;ratioP2;P2;SDS_P1;SDS_P2;PMS_P1;PMS_P2;Temp;Humidity;BMP_temperature;BMP_pressure;BME280_temperature;BME280_humidity;BME280_pressure;Samples;Min_cycle;Max_cycle;Signal;HPM_P1;HPM_P2
2022/01/23 00:03:20;;;;;;;13.53;12.23;;;6.60;48.20;;;;;;10473314;28;20244;-69
2022/01/23 00:08:24;;;;;;;13.37;11.97;;;6.60;47.90;;;;;;10476245;28;20224;-69
2022/01/23 00:13:36;;;;;;;12.93;11.63;;;6.60;48.00;;;;;;10464554;28;20598;-69
2022/01/23 00:18:40;;;;;;;13.50;12.20;;;6.60;48.20;;;;;;10473207;28;20220;-69
2022/01/23 00:34:27;;;;;;;11.80;10.60;;;6.50;48.70;;;;;;10467741;28;20243;-69
2022/01/23 00:39:30;;;;;;;11.60;10.50;;;6.50;48.50;;;;;;10469019;28;20220;-69
2022/01/23 00:44:36;;;;;;;13.30;12.00;;;6.50;48.30;;;;;;10472161;28;20612;-69
2022/01/23 00:49:40;;;;;;;12.90;11.70;;;6.50;48.60;;;;;;10471168;28;20584;-69
2022/01/23 00:54:43;;;;;;;12.57;11.37;;;6.50;48.20;;;;;;10476137;28;20247;-69
2022/01/23 00:59:47;;;;;;;12.77;11.47;;;6.50;48.10;;;;;;10471874;28;20567;-69
2022/01/23 01:04:50;;;;;;;12.50;11.30;;;6.50;48.30;;;;;;10464780;28;20220;-69
2022/01/23 01:09:59;;;;;;;12.60;11.30;;;6.60;48.30;;;;;;10466801;28;20225;-69
2022/01/23 01:31:27;;;;;;;14.07;12.67;;;6.60;48.10;;;;;;10467403;28;20217;-69
2022/01/23 01:36:36;;;;;;;13.20;11.80;;;6.60;48.10;;;;;;10466568;28;20286;-69
2022/01/23 01:41:41;;;;;;;14.30;12.90;;;6.60;47.90;;;;;;10466599;28;20220;-69
2022/01/23 01:46:46;;;;;;;13.60;12.30;;;6.60;47.90;;;;;;10464942;28;20223;-69
2022/01/23 01:51:52;;;;;;;13.93;12.53;;;6.60;47.90;;;;;;10470749;28;20260;-69
2022/01/23 01:57:05;;;;;;;13.60;12.20;;;6.60;47.90;;;;;;10465372;28;20345;-70
2022/01/23 02:13:04;;;;;;;12.67;11.50;;;6.70;47.80;;;;;;10472118;28;20220;-69
2022/01/23 02:18:24;;;;;;;13.77;12.43;;;6.70;47.80;;;;;;10466565;28;20220;-69
2022/01/23 02:23:54;;;;;;;12.57;11.47;;;6.70;47.70;;;;;;10462034;28;20237;-70
2022/01/23 02:50:45;;;;;;;13.27;12.03;;;6.70;47.50;;;;;;10463476;28;20220;-69
2022/01/23 02:55:52;;;;;;;13.00;11.80;;;6.80;47.50;;;;;;10461601;28;20439;-69
2022/01/23 03:01:08;;;;;;;12.70;11.53;;;6.80;47.60;;;;;;10467360;28;20231;-69
2022/01/23 03:06:34;;;;;;;12.97;11.77;;;6.80;47.60;;;;;;10467678;28;20215;-69
2022/01/23 03:32:58;;;;;;;14.50;13.10;;;6.80;47.30;;;;;;10458144;28;20232;-69
2022/01/23 03:38:01;;;;;;;13.90;12.60;;;6.80;47.20;;;;;;10467972;28;20217;-69
2022/01/23 03:43:10;;;;;;;12.57;11.33;;;6.80;47.20;;;;;;10469409;28;20227;-69
2022/01/23 03:53:34;;;;;;;12.63;11.33;;;6.80;47.10;;;;;;10463509;28;20609;-69
2022/01/23 03:58:38;;;;;;;12.83;11.53;;;6.80;47.20;;;;;;10467480;28;20220;-69
2022/01/23 04:03:41;;;;;;;13.03;11.83;;;6.70;47.20;;;;;;10466911;28;20216;-69
2022/01/23 04:08:44;;;;;;;12.97;11.67;;;6.70;47.20;;;;;;10462987;28;20216;-69
2022/01/23 04:13:57;;;;;;;11.97;10.87;;;6.80;47.30;;;;;;10464746;28;20313;-69
2022/01/23 04:35:39;;;;;;;12.53;11.33;;;6.80;47.20;;;;;;10465242;28;20227;-71
2022/01/23 04:46:07;;;;;;;13.47;12.17;;;6.70;47.20;;;;;;10470679;28;20711;-71
2022/01/23 05:02:07;;;;;;;13.97;12.67;;;6.60;47.20;;;;;;10473547;28;20228;-71
2022/01/23 05:07:13;;;;;;;14.10;12.70;;;6.60;47.30;;;;;;10466705;28;20244;-71
2022/01/23 05:12:16;;;;;;;15.03;13.43;;;6.60;47.20;;;;;;10471698;28;20231;-70
2022/01/23 05:17:21;;;;;;;15.03;13.47;;;6.60;47.30;;;;;;10474634;28;20720;-71
2022/01/23 05:22:33;;;;;;;15.07;13.47;;;6.60;47.50;;;;;;10470752;28;20703;-72
2022/01/23 05:27:36;;;;;;;15.57;14.07;;;6.60;47.50;;;;;;10471747;28;20581;-71
2022/01/23 05:32:42;;;;;;;15.93;14.33;;;6.70;47.40;;;;;;10468630;28;20239;-71
2022/01/23 05:37:45;;;;;;;15.23;13.73;;;6.70;47.40;;;;;;10466544;28;20229;-71
2022/01/23 05:42:49;;;;;;;15.57;14.13;;;6.80;47.20;;;;;;10468183;28;20242;-71
2022/01/23 05:47:53;;;;;;;16.50;14.90;;;6.80;47.20;;;;;;10464045;28;20232;-71
2022/01/23 05:52:58;;;;;;;15.33;13.90;;;6.80;47.20;;;;;;10465644;28;20726;-71
2022/01/23 05:58:01;;;;;;;16.07;14.37;;;6.80;47.10;;;;;;10463611;28;20228;-71
2022/01/23 06:03:05;;;;;;;16.07;14.37;;;6.80;47.00;;;;;;10470881;28;20238;-71
2022/01/23 06:08:13;;;;;;;15.90;14.13;;;6.80;47.00;;;;;;10462423;28;20228;-70
2022/01/23 06:13:18;;;;;;;16.97;15.27;;;6.80;47.10;;;;;;10471161;28;20244;-71
2022/01/23 06:18:23;;;;;;;15.77;14.23;;;6.80;47.20;;;;;;10464853;28;20237;-71
2022/01/23 06:23:29;;;;;;;15.60;14.10;;;6.80;47.10;;;;;;10462567;28;20224;-71
2022/01/23 06:28:42;;;;;;;15.87;14.27;;;6.80;47.10;;;;;;10465467;28;20225;-71
2022/01/23 06:33:47;;;;;;;16.17;14.57;;;6.70;47.30;;;;;;10459209;28;20601;-71
2022/01/23 06:38:50;;;;;;;17.47;15.77;;;6.80;47.30;;;;;;10456588;28;20220;-71
2022/01/23 06:43:54;;;;;;;18.33;16.53;;;6.80;47.20;;;;;;10464940;28;20229;-71
2022/01/23 06:48:59;;;;;;;16.83;15.13;;;6.80;47.20;;;;;;10464094;28;20625;-70
2022/01/23 06:54:02;;;;;;;21.37;19.07;;;6.80;47.30;;;;;;10462599;28;20771;-70
2022/01/23 06:59:05;;;;;;;21.77;19.47;;;6.80;47.20;;;;;;10463395;28;20228;-71
2022/01/23 07:04:10;;;;;;;22.63;19.67;;;6.80;47.20;;;;;;10466094;28;20229;-70
2022/01/23 07:09:13;;;;;;;19.33;17.33;;;6.80;47.30;;;;;;10469764;28;20232;-71
2022/01/23 07:14:16;;;;;;;20.83;18.63;;;6.80;47.20;;;;;;10459884;28;20235;-70
2022/01/23 07:19:21;;;;;;;19.03;17.13;;;6.80;47.20;;;;;;10464323;28;20923;-70
2022/01/23 07:24:24;;;;;;;19.20;17.20;;;6.80;47.30;;;;;;10459342;28;20241;-70
2022/01/23 07:29:27;;;;;;;18.40;16.50;;;6.80;47.40;;;;;;10460835;28;20220;-70
2022/01/23 07:34:31;;;;;;;15.93;14.33;;;6.90;47.40;;;;;;10458273;28;20239;-70
2022/01/23 07:39:41;;;;;;;17.80;15.97;;;6.90;47.30;;;;;;10456384;28;20726;-70
2022/01/23 07:44:55;;;;;;;16.60;14.90;;;7.00;47.20;;;;;;10466380;28;20216;-71
2022/01/23 07:50:00;;;;;;;15.73;14.20;;;7.00;47.20;;;;;;10459442;28;20712;-70
2022/01/23 07:55:05;;;;;;;17.53;15.73;;;7.00;47.20;;;;;;10462609;28;20217;-70
2022/01/23 08:00:10;;;;;;;17.37;15.53;;;7.00;47.30;;;;;;10458817;28;20924;-70
2022/01/23 08:05:15;;;;;;;17.67;15.87;;;7.10;47.20;;;;;;10458002;28;20224;-70
2022/01/23 08:10:18;;;;;;;16.87;15.17;;;7.10;47.20;;;;;;10462526;28;20228;-70
2022/01/23 08:15:24;;;;;;;18.03;16.23;;;7.10;47.10;;;;;;10457159;28;20236;-70
2022/01/23 08:20:34;;;;;;;16.83;15.13;;;7.10;47.10;;;;;;10463917;28;20235;-70
2022/01/23 08:25:37;;;;;;;17.47;15.67;;;7.10;47.20;;;;;;10467500;28;20224;-70
2022/01/23 08:30:40;;;;;;;17.10;15.20;;;7.10;47.20;;;;;;10468881;28;20227;-70
2022/01/23 08:35:45;;;;;;;19.90;17.77;;;7.10;47.20;;;;;;10469634;28;20244;-71
2022/01/23 08:41:49;;;;;;;20.57;18.40;;;7.10;47.50;;;;;;10467054;28;20217;-70
2022/01/23 08:46:12;;;;;;;19.93;17.07;;;7.10;47.40;;;;;;10468569;28;20221;-70
2022/01/23 08:51:17;;;;;;;17.73;15.90;;;7.10;47.20;;;;;;10467374;28;20236;-70
2022/01/23 08:56:27;;;;;;;19.63;17.53;;;7.10;47.40;;;;;;10463345;28;20229;-70
2022/01/23 09:01:30;;;;;;;21.67;19.37;;;7.10;47.60;;;;;;10465421;28;20248;-70
2022/01/23 09:06:35;;;;;;;19.97;17.97;;;7.10;47.50;;;;;;10467667;28;20212;-70
2022/01/23 09:11:41;;;;;;;19.67;17.67;;;7.10;47.80;;;;;;10465195;28;20231;-70
2022/01/23 09:16:45;;;;;;;19.33;17.10;;;7.20;47.80;;;;;;10464974;28;20228;-70
2022/01/23 09:21:50;;;;;;;18.77;16.83;;;7.10;47.70;;;;;;10461853;28;20242;-70
2022/01/23 09:27:02;;;;;;;17.50;15.73;;;7.20;47.80;;;;;;10463912;28;20225;-70
2022/01/23 09:32:16;;;;;;;17.67;15.80;;;7.20;47.80;;;;;;10459581;28;20231;-70
2022/01/23 09:37:21;;;;;;;17.50;15.60;;;7.20;48.00;;;;;;10468889;28;20235;-70
2022/01/23 09:42:31;;;;;;;16.20;14.50;;;7.30;48.10;;;;;;10464769;28;20240;-70
2022/01/23 09:47:36;;;;;;;15.37;13.87;;;7.20;47.90;;;;;;10468118;28;20217;-70
2022/01/23 09:52:45;;;;;;;15.30;13.70;;;7.30;47.90;;;;;;10466659;28;20633;-70
2022/01/23 09:57:50;;;;;;;14.50;12.90;;;7.40;48.00;;;;;;10459719;28;20223;-70
2022/01/23 10:02:57;;;;;;;15.07;13.57;;;7.50;47.70;;;;;;10464987;28;20217;-70
2022/01/23 10:08:06;;;;;;;15.53;13.93;;;7.50;47.50;;;;;;10461444;28;20221;-70
2022/01/23 10:13:10;;;;;;;13.63;12.23;;;7.60;47.30;;;;;;10468273;28;20255;-70
2022/01/23 10:18:16;;;;;;;14.53;13.13;;;7.60;47.40;;;;;;10466613;28;20235;-70
2022/01/23 10:23:21;;;;;;;14.50;13.00;;;7.60;47.40;;;;;;10465601;28;20613;-68
2022/01/23 10:28:29;;;;;;;17.57;15.77;;;7.60;47.30;;;;;;10464677;28;20680;-68
2022/01/23 10:33:34;;;;;;;15.33;13.73;;;7.70;47.30;;;;;;10462382;28;20229;-69
2022/01/23 10:38:56;;;;;;;14.90;13.30;;;7.70;47.20;;;;;;10465200;28;20228;-69
2022/01/23 10:49:48;;;;;;;12.87;11.57;;;7.80;47.00;;;;;;10466661;28;20223;-69
2022/01/23 10:54:53;;;;;;;12.93;11.60;;;7.80;47.30;;;;;;10469423;28;20217;-69
2022/01/23 10:59:58;;;;;;;15.03;13.43;;;7.80;47.30;;;;;;10459622;28;20221;-69
2022/01/23 11:05:04;;;;;;;15.20;13.57;;;7.80;47.10;;;;;;10461059;28;20224;-69
2022/01/23 11:10:13;;;;;;;43.87;39.03;;;7.90;47.30;;;;;;10461684;28;20228;-69
2022/01/23 11:20:40;;;;;;;15.17;13.60;;;8.00;47.20;;;;;;10462146;28;20229;-69
2022/01/23 11:26:06;;;;;;;14.47;13.00;;;8.10;47.00;;;;;;10457531;28;20227;-69
2022/01/23 11:31:14;;;;;;;12.07;10.73;;;8.10;47.10;;;;;;10463289;28;20595;-69
2022/01/23 11:36:18;;;;;;;13.23;11.93;;;8.10;46.90;;;;;;10464322;28;20229;-69
2022/01/23 11:57:47;;;;;;;12.87;11.50;;;8.30;46.70;;;;;;10465988;28;20228;-70
2022/01/23 12:03:15;;;;;;;15.63;14.20;;;8.40;46.40;;;;;;10468039;28;20700;-69
2022/01/23 12:08:21;;;;;;;13.27;11.87;;;8.40;46.20;;;;;;10471094;28;20315;-69
2022/01/23 12:13:56;;;;;;;13.03;11.70;;;8.40;46.00;;;;;;10484656;28;20232;-69
2022/01/23 12:19:18;;;;;;;12.27;11.00;;;8.40;46.50;;;;;;10476749;28;20747;-69
2022/01/23 12:24:23;;;;;;;12.90;11.60;;;8.40;46.00;;;;;;10466000;28;22558;-69
2022/01/23 12:29:29;;;;;;;9.70;8.60;;;8.40;46.30;;;;;;10470510;28;20225;-69
2022/01/23 12:34:51;;;;;;;11.10;10.10;;;8.50;45.80;;;;;;10467034;28;20229;-69
2022/01/23 12:40:22;;;;;;;11.10;9.97;;;8.50;45.60;;;;;;10466290;28;20228;-69
2022/01/23 12:45:53;;;;;;;10.37;9.27;;;8.50;45.60;;;;;;10467474;28;20259;-68
2022/01/23 12:50:58;;;;;;;11.83;10.63;;;8.60;45.50;;;;;;10472810;28;20227;-69
2022/01/23 12:56:03;;;;;;;12.37;11.07;;;8.60;45.70;;;;;;10468244;28;20232;-69
2022/01/23 13:01:17;;;;;;;14.07;12.67;;;8.60;45.70;;;;;;10467943;28;20715;-69
2022/01/23 13:06:34;;;;;;;14.90;13.40;;;8.60;45.70;;;;;;10471577;28;20216;-69
2022/01/23 13:11:55;;;;;;;14.80;13.20;;;8.60;45.70;;;;;;10470797;28;20224;-69
2022/01/23 13:17:25;;;;;;;12.67;11.17;;;8.60;45.70;;;;;;10469155;28;20234;-69
2022/01/23 13:33:25;;;;;;;11.57;10.37;;;8.60;46.00;;;;;;10434436;28;20248;-69
2022/01/23 13:38:34;;;;;;;11.63;10.43;;;8.60;46.50;;;;;;10464153;28;20225;-70
2022/01/23 14:00:02;;;;;;;9.97;8.97;;;8.80;45.80;;;;;;10469965;28;20220;-69
2022/01/23 14:05:17;;;;;;;9.10;8.20;;;8.80;45.80;;;;;;10457028;28;20228;-69
2022/01/23 14:10:23;;;;;;;10.67;9.57;;;8.90;45.80;;;;;;10455831;28;20235;-70
2022/01/23 14:15:29;;;;;;;9.43;8.37;;;8.90;45.60;;;;;;10451032;28;20240;-69
2022/01/23 14:20:37;;;;;;;10.20;6.83;;;9.00;45.60;;;;;;10463391;28;20581;-71
2022/01/23 14:25:48;;;;;;;9.20;6.70;;;9.00;48.80;;;;;;10463056;28;20221;-70
2022/01/23 14:30:58;;;;;;;7.30;6.60;;;9.20;50.80;;;;;;10473126;28;20715;-69
2022/01/23 14:36:18;;;;;;;6.33;5.73;;;9.40;47.40;;;;;;10472058;28;20224;-69
2022/01/23 14:41:25;;;;;;;6.93;6.23;;;9.60;45.70;;;;;;10466674;28;20229;-69
2022/01/23 14:46:31;;;;;;;7.63;6.53;;;9.60;45.90;;;;;;10472958;28;20233;-69
2022/01/23 14:51:39;;;;;;;7.17;6.50;;;9.70;45.00;;;;;;10468660;28;20278;-69
2022/01/23 14:56:43;;;;;;;6.93;6.23;;;9.60;44.80;;;;;;10470586;28;20248;-70
2022/01/23 15:01:49;;;;;;;6.27;5.67;;;9.60;45.30;;;;;;10473663;28;20220;-69
2022/01/23 15:06:55;;;;;;;7.30;6.50;;;9.60;44.80;;;;;;10474135;28;20599;-70
2022/01/23 15:11:59;;;;;;;6.60;5.97;;;9.50;44.90;;;;;;10478563;28;20712;-70
2022/01/23 15:17:02;;;;;;;5.93;5.37;;;9.50;45.00;;;;;;10472465;28;20231;-70
2022/01/23 15:22:07;;;;;;;5.90;5.20;;;9.50;45.10;;;;;;10467813;28;20734;-70
2022/01/23 15:27:10;;;;;;;5.23;4.73;;;9.50;44.80;;;;;;10470051;28;20224;-70
2022/01/23 15:32:14;;;;;;;5.93;5.37;;;9.40;45.00;;;;;;10474426;28;20224;-70
2022/01/23 15:37:21;;;;;;;6.53;5.93;;;9.40;44.90;;;;;;10472145;28;20223;-70
2022/01/23 15:42:24;;;;;;;6.97;5.13;;;9.40;44.90;;;;;;10461405;28;20247;-70
2022/01/23 15:47:27;;;;;;;5.67;5.10;;;9.40;48.00;;;;;;10461975;28;20586;-69
2022/01/23 15:52:32;;;;;;;6.77;6.17;;;9.50;47.60;;;;;;10462815;28;20241;-70
2022/01/23 15:57:39;;;;;;;7.43;6.73;;;9.80;46.60;;;;;;10462513;28;20573;-69
2022/01/23 16:02:42;;;;;;;7.43;6.73;;;9.80;46.00;;;;;;10462523;28;20716;-71
2022/01/23 16:07:52;;;;;;;8.87;7.97;;;9.80;45.40;;;;;;10458233;28;20283;-71
2022/01/23 16:12:55;;;;;;;10.83;9.83;;;9.80;45.00;;;;;;10462039;28;20225;-71
2022/01/23 16:17:58;;;;;;;6.97;6.37;;;9.70;45.00;;;;;;10463663;28;20235;-71
2022/01/23 16:23:03;;;;;;;13.30;11.90;;;9.70;45.00;;;;;;10460597;28;20599;-71
2022/01/23 16:28:12;;;;;;;8.87;7.97;;;9.60;44.70;;;;;;10462183;28;20212;-71
2022/01/23 16:33:19;;;;;;;11.50;10.37;;;9.50;44.90;;;;;;10454894;28;20225;-71
2022/01/23 16:38:32;;;;;;;10.83;9.73;;;9.40;44.90;;;;;;10386103;28;20245;-71
2022/01/23 16:43:39;;;;;;;9.77;6.33;;;9.40;44.90;;;;;;10441873;28;20751;-71
2022/01/23 16:48:42;;;;;;;5.43;4.93;;;9.40;45.10;;;;;;10416118;28;20231;-71
2022/01/23 16:53:47;;;;;;;4.73;4.33;;;9.30;45.00;;;;;;10464084;28;20239;-71
2022/01/23 16:58:52;;;;;;;5.07;4.57;;;9.30;45.00;;;;;;10462872;28;20225;-71
2022/01/23 17:03:57;;;;;;;4.80;4.40;;;9.30;45.20;;;;;;10463881;28;20239;-71
2022/01/23 17:09:08;;;;;;;5.10;4.60;;;9.20;45.00;;;;;;10458660;28;20247;-71
2022/01/23 17:14:14;;;;;;;5.77;5.27;;;9.20;45.10;;;;;;10462624;28;20237;-71
2022/01/23 17:19:17;;;;;;;7.07;6.47;;;9.20;45.30;;;;;;10461935;28;20572;-69
2022/01/23 17:24:22;;;;;;;8.93;8.13;;;9.10;45.10;;;;;;10462808;28;20779;-69
2022/01/23 17:29:28;;;;;;;8.40;7.60;;;9.10;44.90;;;;;;10430829;28;1120136;-69
2022/01/23 17:34:34;;;;;;;7.93;7.13;;;9.00;44.80;;;;;;10466790;28;20813;-69
2022/01/23 17:39:39;;;;;;;7.47;6.70;;;9.00;45.10;;;;;;10462781;28;20711;-70
2022/01/23 17:44:47;;;;;;;5.50;5.00;;;9.00;45.20;;;;;;10461553;28;20279;-70
2022/01/23 17:49:55;;;;;;;5.60;4.77;;;8.90;45.10;;;;;;10465591;28;20236;-69
2022/01/23 17:55:03;;;;;;;4.17;3.87;;;8.90;45.10;;;;;;10462667;28;20228;-72
2022/01/23 18:00:08;;;;;;;4.63;4.23;;;8.90;45.10;;;;;;10465798;28;20225;-69
2022/01/23 18:05:12;;;;;;;4.60;4.20;;;8.90;45.10;;;;;;10462859;28;20228;-69
2022/01/23 18:10:18;;;;;;;3.80;3.50;;;8.80;45.10;;;;;;10462164;28;20908;-69
2022/01/23 18:15:22;;;;;;;5.30;4.80;;;8.80;45.00;;;;;;10465742;28;20244;-69
2022/01/23 18:20:28;;;;;;;5.57;5.03;;;8.80;45.00;;;;;;10462002;28;20679;-69
2022/01/23 18:25:33;;;;;;;6.67;5.00;;;8.80;45.20;;;;;;10462549;28;20216;-71
2022/01/23 18:30:36;;;;;;;4.60;4.20;;;8.70;45.10;;;;;;10459065;28;20225;-71
2022/01/23 18:35:58;;;;;;;5.40;4.90;;;8.70;45.20;;;;;;10459081;28;20220;-71
2022/01/23 18:41:03;;;;;;;4.60;4.20;;;8.70;45.20;;;;;;10462142;28;20229;-70
2022/01/23 18:46:06;;;;;;;4.90;4.50;;;8.60;45.10;;;;;;10462406;28;20603;-70
2022/01/23 18:51:10;;;;;;;4.80;4.40;;;8.60;45.10;;;;;;10462255;28;20276;-69
2022/01/23 18:56:18;;;;;;;4.70;4.30;;;8.60;45.00;;;;;;10464402;28;20307;-70
2022/01/23 19:01:21;;;;;;;4.60;4.20;;;8.50;44.90;;;;;;10462609;28;20239;-69
2022/01/23 19:06:32;;;;;;;5.37;4.87;;;8.50;45.20;;;;;;10461569;28;20301;-69
2022/01/23 19:11:37;;;;;;;7.63;6.93;;;8.40;45.20;;;;;;10461743;28;20229;-69
2022/01/23 19:16:41;;;;;;;6.00;5.50;;;8.40;45.20;;;;;;10463071;28;20239;-70
2022/01/23 19:21:45;;;;;;;5.03;4.63;;;8.30;45.00;;;;;;10461222;28;20224;-69
2022/01/23 19:26:50;;;;;;;6.20;5.60;;;8.30;45.30;;;;;;10463490;28;20225;-69
2022/01/23 19:31:53;;;;;;;7.83;7.07;;;8.30;45.40;;;;;;10461867;28;20236;-69
2022/01/23 19:36:57;;;;;;;11.17;10.13;;;8.20;45.30;;;;;;10458737;28;20224;-69
2022/01/23 19:42:09;;;;;;;10.77;9.77;;;8.20;45.10;;;;;;10463134;28;20217;-69
2022/01/23 19:47:19;;;;;;;17.00;15.27;;;8.20;45.30;;;;;;10465910;28;20220;-69
2022/01/23 19:52:22;;;;;;;14.63;13.13;;;8.10;45.30;;;;;;10462409;28;21097;-69
2022/01/23 19:57:28;;;;;;;8.20;7.40;;;8.10;45.30;;;;;;10458661;28;20613;-69
2022/01/23 20:02:31;;;;;;;7.23;6.53;;;8.00;45.20;;;;;;10464108;28;20244;-71
2022/01/23 20:07:36;;;;;;;5.53;5.03;;;8.10;45.50;;;;;;10460244;28;20217;-72
2022/01/23 20:12:52;;;;;;;5.13;4.73;;;8.10;45.60;;;;;;10467359;28;20228;-73
2022/01/23 20:17:55;;;;;;;5.07;4.67;;;8.10;45.40;;;;;;10474073;28;20222;-72
2022/01/23 20:22:59;;;;;;;5.37;4.87;;;8.10;45.40;;;;;;10460882;28;20228;-69
2022/01/23 20:28:06;;;;;;;5.07;4.23;;;8.20;45.50;;;;;;10462740;28;20273;-69
2022/01/23 20:33:10;;;;;;;4.90;4.40;;;8.20;45.40;;;;;;10462312;28;20251;-70
2022/01/23 20:38:13;;;;;;;5.03;4.63;;;8.20;45.30;;;;;;10459045;28;20220;-69
2022/01/23 20:43:18;;;;;;;5.83;5.33;;;8.20;45.30;;;;;;10461321;28;20263;-69
2022/01/23 20:48:22;;;;;;;5.60;5.10;;;8.20;45.40;;;;;;10456534;28;20596;-68
2022/01/23 20:58:47;;;;;;;6.43;5.90;;;8.20;45.30;;;;;;10452121;28;21190;-70
2022/01/23 21:03:53;;;;;;;6.57;5.97;;;8.10;45.30;;;;;;10447297;28;20232;-70
2022/01/23 21:08:57;;;;;;;6.33;5.73;;;8.10;45.30;;;;;;10467724;28;20213;-69
2022/01/23 21:14:09;;;;;;;5.67;5.17;;;8.10;45.30;;;;;;10466385;28;20224;-70
2022/01/23 21:40:53;;;;;;;5.67;5.17;;;8.10;45.30;;;;;;10457590;28;20301;-70
2022/01/23 21:45:59;;;;;;;6.00;5.50;;;8.00;45.20;;;;;;10443628;28;20234;-70
2022/01/23 21:51:03;;;;;;;5.73;5.23;;;8.00;45.20;;;;;;10449217;28;20228;-69
2022/01/23 21:56:08;;;;;;;6.07;5.53;;;8.00;45.40;;;;;;10454772;28;20267;-71
2022/01/23 22:01:12;;;;;;;5.77;5.27;;;8.00;45.50;;;;;;10460258;28;20303;-71
2022/01/23 22:06:16;;;;;;;6.40;5.80;;;8.00;45.60;;;;;;10461809;28;20232;-71
2022/01/23 22:11:23;;;;;;;6.27;5.60;;;8.00;45.50;;;;;;10458874;28;20231;-71
2022/01/23 22:16:28;;;;;;;6.50;5.90;;;8.00;45.30;;;;;;10459536;28;20709;-70
2022/01/23 22:21:46;;;;;;;5.47;4.87;;;8.00;45.30;;;;;;10465606;28;20237;-68
2022/01/23 22:26:49;;;;;;;6.30;5.70;;;8.00;45.50;;;;;;10464530;28;20860;-69
2022/01/23 22:31:57;;;;;;;6.40;5.80;;;8.00;45.50;;;;;;10460983;28;20264;-69
2022/01/23 22:37:00;;;;;;;7.30;6.60;;;8.00;45.50;;;;;;10461053;28;20216;-69
2022/01/23 22:42:07;;;;;;;7.93;7.23;;;8.00;45.30;;;;;;10459498;28;20224;-69
2022/01/23 22:47:12;;;;;;;9.07;8.27;;;8.00;45.20;;;;;;10457223;28;20249;-70
2022/01/23 22:52:15;;;;;;;8.37;7.50;;;8.00;45.30;;;;;;10457155;28;20230;-70
2022/01/23 22:57:18;;;;;;;8.37;7.57;;;8.00;45.20;;;;;;10456891;28;20648;-69
2022/01/23 23:02:23;;;;;;;8.30;7.50;;;8.00;45.20;;;;;;10450228;28;20254;-69
2022/01/23 23:07:32;;;;;;;8.10;7.30;;;7.90;45.20;;;;;;10458537;28;20228;-69
2022/01/23 23:12:39;;;;;;;8.63;7.83;;;7.90;45.50;;;;;;10460396;28;20247;-69
2022/01/23 23:17:43;;;;;;;8.87;8.07;;;7.90;45.30;;;;;;10467054;28;20279;-69
2022/01/23 23:22:48;;;;;;;7.93;7.13;;;7.90;45.30;;;;;;10466105;28;20767;-69
2022/01/23 23:27:52;;;;;;;8.50;7.67;;;7.90;45.40;;;;;;10462873;28;20227;-69
2022/01/23 23:32:56;;;;;;;7.00;6.30;;;7.90;45.10;;;;;;10472284;28;20324;-69
2022/01/23 23:38:00;;;;;;;8.07;7.27;;;7.80;45.00;;;;;;10471087;28;20223;-69
2022/01/23 23:43:07;;;;;;;8.00;7.20;;;7.70;45.00;;;;;;10467646;28;20231;-69
2022/01/23 23:48:16;;;;;;;7.87;7.07;;;7.70;45.00;;;;;;10482244;28;21111;-69
2022/01/23 23:53:20;;;;;;;7.17;6.47;;;7.70;45.00;;;;;;10480894;28;20226;-69
2022/01/23 23:58:23;;;;;;;5.83;5.33;;;7.60;45.10;;;;;;10483834;28;20235;-69
